createdAt,value
2022-10-21T00:00:59.271Z,9.93
2022-10-21T00:01:46.330Z,9.84
2022-10-21T00:02:40.712Z,9.99
2022-10-21T00:03:36.317Z,10.10
2022-10-21T00:04:30.246Z,10.45
2022-10-21T00:05:24.264Z,10.23
2022-10-21T00:06:19.254Z,9.95
2022-10-21T00:07:06.273Z,10.06
2022-10-21T00:07:41.425Z,10.38
2022-10-21T00:08:29.317Z,10.14
2022-10-21T00:09:03.417Z,10.13
2022-10-21T00:09:50.269Z,10.15
2022-10-21T00:10:24.373Z,10.25
2022-10-21T00:11:14.280Z,10.36
2022-10-21T00:11:48.317Z,10.48
2022-10-21T00:12:29.272Z,10.35
2022-10-21T00:13:09.350Z,10.06
2022-10-21T00:13:50.252Z,10.10
2022-10-21T00:14:30.326Z,10.10
2022-10-21T00:15:13.254Z,10.26
2022-10-21T00:16:18.388Z,10.68
2022-10-21T00:16:58.269Z,10.71
2022-10-21T00:17:47.346Z,10.14
2022-10-21T00:18:42.241Z,10.60
2022-10-21T00:19:36.258Z,10.74
2022-10-21T00:20:31.189Z,10.48
2022-10-21T00:21:33.299Z,10.80
2022-10-21T00:22:27.353Z,10.94
2022-10-21T00:23:07.376Z,10.48
2022-10-21T00:23:47.372Z,10.16
2022-10-21T00:24:27.268Z,10.66
2022-10-21T00:25:07.330Z,10.88
2022-10-21T00:25:47.248Z,11.01
2022-10-21T00:26:27.338Z,11.36
2022-10-21T00:27:09.230Z,11.30
2022-10-21T00:27:49.321Z,11.31
2022-10-21T00:28:29.321Z,11.31
2022-10-21T00:29:09.386Z,11.49
2022-10-21T00:29:49.228Z,11.46
2022-10-21T00:30:29.338Z,11.11
2022-10-21T00:31:13.300Z,10.69
2022-10-21T00:31:53.524Z,11.07
2022-10-21T00:32:33.240Z,10.94
2022-10-21T00:33:13.303Z,10.84
2022-10-21T00:33:54.275Z,11.31
2022-10-21T00:34:34.402Z,10.88
2022-10-21T00:35:15.269Z,10.45
2022-10-21T00:36:02.456Z,10.41
2022-10-21T00:36:43.268Z,10.51
2022-10-21T00:37:23.304Z,10.71
2022-10-21T00:38:03.232Z,10.44
2022-10-21T00:39:00.263Z,10.66
2022-10-21T00:39:54.207Z,10.32
2022-10-21T00:40:48.241Z,10.27
2022-10-21T00:41:42.274Z,10.77
2022-10-21T00:42:45.681Z,10.91
2022-10-21T00:43:42.230Z,11.04
2022-10-21T00:44:23.313Z,10.89
2022-10-21T00:45:12.290Z,10.81
2022-10-21T00:45:54.240Z,11.56
2022-10-21T00:46:45.330Z,11.57
2022-10-21T00:47:28.252Z,11.14
2022-10-21T00:48:21.314Z,11.52
2022-10-21T00:49:05.236Z,11.31
2022-10-21T00:50:09.233Z,11.05
2022-10-21T00:51:13.315Z,11.21
2022-10-21T00:52:03.208Z,11.14
2022-10-21T00:52:40.588Z,10.90
2022-10-21T00:53:29.274Z,10.80
2022-10-21T00:54:03.358Z,10.95
2022-10-21T00:54:51.229Z,10.91
2022-10-21T00:55:32.326Z,10.94
2022-10-21T00:56:34.229Z,10.88
2022-10-21T00:57:28.208Z,10.84
2022-10-21T00:58:22.204Z,10.74
2022-10-21T00:59:18.235Z,10.79
2022-10-21T01:00:16.214Z,11.04
2022-10-21T01:00:58.350Z,11.16
2022-10-21T01:01:38.336Z,10.77
2022-10-21T01:02:18.240Z,10.73
2022-10-21T01:02:58.300Z,11.21
2022-10-21T01:03:39.229Z,10.98
2022-10-21T01:04:19.307Z,10.81
2022-10-21T01:05:03.197Z,10.69
2022-10-21T01:05:45.393Z,10.43
2022-10-21T01:06:31.267Z,10.68
2022-10-21T01:07:11.273Z,10.41
2022-10-21T01:07:54.244Z,10.46
2022-10-21T01:08:35.400Z,11.20
2022-10-21T01:09:15.337Z,10.82
2022-10-21T01:09:55.253Z,10.84
2022-10-21T01:10:36.196Z,11.09
2022-10-21T01:11:22.314Z,10.93
2022-10-21T01:12:03.243Z,11.26
2022-10-21T01:13:22.332Z,11.40
2022-10-21T01:14:31.221Z,11.21
2022-10-21T01:15:47.295Z,11.19
2022-10-21T01:16:50.188Z,11.29
2022-10-21T01:17:54.250Z,11.38
2022-10-21T01:18:52.264Z,11.24
2022-10-21T01:19:59.187Z,11.29
2022-10-21T01:20:54.315Z,11.61
2022-10-21T01:22:11.215Z,10.82
2022-10-21T01:23:29.330Z,10.79
2022-10-21T01:25:13.180Z,10.82
2022-10-21T01:26:49.230Z,10.99
2022-10-21T01:28:00.234Z,10.98
2022-10-21T01:29:17.231Z,10.63
2022-10-21T01:30:30.256Z,10.99
2022-10-21T01:31:57.180Z,10.88
2022-10-21T01:34:10.184Z,10.89
2022-10-21T01:35:02.241Z,11.09
2022-10-21T01:35:46.241Z,11.52
2022-10-21T01:36:36.960Z,11.29
2022-10-21T01:37:43.323Z,11.40
2022-10-21T01:38:45.258Z,11.25
2022-10-21T01:39:27.619Z,11.07
2022-10-21T01:40:20.341Z,10.81
2022-10-21T01:41:07.257Z,10.90
2022-10-21T01:41:52.662Z,11.21
2022-10-21T01:42:41.258Z,11.65
2022-10-21T01:43:30.258Z,11.29
2022-10-21T01:44:23.403Z,10.80
2022-10-21T01:45:56.232Z,10.82
2022-10-21T01:46:35.264Z,10.95
2022-10-21T01:47:20.544Z,11.09
2022-10-21T01:48:04.181Z,11.31
2022-10-21T01:48:44.265Z,11.64
2022-10-21T01:49:39.330Z,11.14
2022-10-21T01:50:35.188Z,10.81
2022-10-21T01:51:20.228Z,11.18
2022-10-21T01:51:55.380Z,11.01
2022-10-21T01:52:43.279Z,11.31
2022-10-21T01:53:17.978Z,11.26
2022-10-21T01:54:23.185Z,11.05
2022-10-21T01:55:04.712Z,10.90
2022-10-21T01:55:54.157Z,10.98
2022-10-21T01:56:35.182Z,11.07
2022-10-21T01:57:19.320Z,10.84
2022-10-21T01:58:10.143Z,11.10
2022-10-21T01:58:52.213Z,11.14
2022-10-21T01:59:35.147Z,11.09
2022-10-21T02:00:16.305Z,11.46
2022-10-21T02:00:58.277Z,11.00
2022-10-21T02:01:46.184Z,10.80
2022-10-21T02:02:20.913Z,11.30
2022-10-21T02:03:10.141Z,11.40
2022-10-21T02:03:47.226Z,11.24
2022-10-21T02:04:35.148Z,11.14
2022-10-21T02:05:21.444Z,11.21
2022-10-21T02:06:08.177Z,11.00
2022-10-21T02:06:41.872Z,11.25
2022-10-21T02:07:23.159Z,11.44
2022-10-21T02:07:57.233Z,11.31
2022-10-21T02:08:31.182Z,11.43
2022-10-21T02:09:11.243Z,11.06
2022-10-21T02:09:45.279Z,10.95
2022-10-21T02:10:19.889Z,11.21
2022-10-21T02:11:04.160Z,11.23
2022-10-21T02:11:40.269Z,10.70
2022-10-21T02:12:15.932Z,10.75
2022-10-21T02:12:58.172Z,10.75
2022-10-21T02:13:37.218Z,11.10
2022-10-21T02:14:17.520Z,10.99
2022-10-21T02:14:59.150Z,11.34
2022-10-21T02:15:34.211Z,11.38
2022-10-21T02:16:10.383Z,10.86
2022-10-21T02:16:51.163Z,11.16
2022-10-21T02:17:27.245Z,11.27
2022-10-21T02:18:17.163Z,11.13
2022-10-21T02:18:57.342Z,11.40
2022-10-21T02:19:38.170Z,11.46
2022-10-21T02:20:20.207Z,11.44
2022-10-21T02:21:17.124Z,10.96
2022-10-21T02:22:00.264Z,10.96
2022-10-21T02:22:42.113Z,11.23
2022-10-21T02:23:31.216Z,11.18
2022-10-21T02:24:43.127Z,11.16
2022-10-21T02:25:39.134Z,10.65
2022-10-21T02:26:12.874Z,11.30
2022-10-21T02:27:00.167Z,11.07
2022-10-21T02:27:33.866Z,11.16
2022-10-21T02:28:22.189Z,11.07
2022-10-21T02:29:03.173Z,10.65
2022-10-21T02:29:46.178Z,11.04
2022-10-21T02:30:26.141Z,11.40
2022-10-21T02:31:43.226Z,11.77
2022-10-21T02:33:12.105Z,11.34
2022-10-21T02:34:59.180Z,11.05
2022-10-21T02:36:15.862Z,10.86
2022-10-21T02:37:13.124Z,10.88
2022-10-21T02:38:33.232Z,11.43
2022-10-21T02:39:35.138Z,11.48
2022-10-21T02:40:47.142Z,11.74
2022-10-21T02:41:30.226Z,11.27
2022-10-21T02:42:15.098Z,10.80
2022-10-21T02:43:02.149Z,10.85
2022-10-21T02:43:58.143Z,10.94
2022-10-21T02:44:38.359Z,11.30
2022-10-21T02:45:18.129Z,11.61
2022-10-21T02:46:09.147Z,11.80
2022-10-21T02:46:44.731Z,12.07
2022-10-21T02:47:33.106Z,12.85
2022-10-21T02:48:07.043Z,13.76
2022-10-21T02:49:00.105Z,13.80
2022-10-21T02:49:33.863Z,13.45
2022-10-21T02:50:22.111Z,13.07
2022-10-21T02:50:55.844Z,13.04
2022-10-21T02:51:36.136Z,13.07
2022-10-21T02:52:10.173Z,12.40
2022-10-21T02:52:43.789Z,12.70
2022-10-21T02:53:24.109Z,13.10
2022-10-21T02:53:58.217Z,12.91
2022-10-21T02:54:32.828Z,12.71
2022-10-21T02:55:14.093Z,12.61
2022-10-21T02:55:48.217Z,12.38
2022-10-21T02:56:21.835Z,12.01
2022-10-21T02:57:02.129Z,11.54
2022-10-21T02:57:36.485Z,11.39
2022-10-21T02:58:10.861Z,11.10
2022-10-21T02:58:51.108Z,11.09
2022-10-21T02:59:25.384Z,11.30
2022-10-21T02:59:58.792Z,11.21
2022-10-21T03:00:39.126Z,11.09
2022-10-21T03:01:13.208Z,11.70
2022-10-21T03:01:46.784Z,11.68
2022-10-21T03:02:27.115Z,11.50
2022-10-21T03:03:01.257Z,11.75
2022-10-21T03:03:34.765Z,12.11
2022-10-21T03:04:16.081Z,11.68
2022-10-21T03:04:50.172Z,11.39
2022-10-21T03:05:23.912Z,11.80
2022-10-21T03:06:05.237Z,11.84
2022-10-21T03:06:39.157Z,11.55
2022-10-21T03:07:12.855Z,11.61
2022-10-21T03:07:53.125Z,11.57
2022-10-21T03:08:27.299Z,11.50
2022-10-21T03:09:01.885Z,11.30
2022-10-21T03:09:42.085Z,11.54
2022-10-21T03:10:16.153Z,11.31
2022-10-21T03:10:53.162Z,11.13
2022-10-21T03:11:34.108Z,11.68
2022-10-21T03:12:08.211Z,11.54
2022-10-21T03:12:41.874Z,11.20
2022-10-21T03:13:23.124Z,11.36
2022-10-21T03:13:57.145Z,11.20
2022-10-21T03:14:30.781Z,11.07
2022-10-21T03:15:12.068Z,11.54
2022-10-21T03:15:46.236Z,11.39
2022-10-21T03:16:19.791Z,10.98
2022-10-21T03:17:00.069Z,11.14
2022-10-21T03:17:34.197Z,11.18
2022-10-21T03:18:07.787Z,10.70
2022-10-21T03:18:49.094Z,11.10
2022-10-21T03:19:23.145Z,10.91
2022-10-21T03:19:56.776Z,10.99
2022-10-21T03:20:37.101Z,10.57
2022-10-21T03:21:11.141Z,10.89
2022-10-21T03:21:44.865Z,11.31
2022-10-21T03:22:25.047Z,11.23
2022-10-21T03:23:05.117Z,11.05
2022-10-21T03:23:45.083Z,11.09
2022-10-21T03:24:28.819Z,10.71
2022-10-21T03:25:03.180Z,10.48
2022-10-21T03:25:36.833Z,10.35
2022-10-21T03:26:17.062Z,10.26
2022-10-21T03:26:51.119Z,10.44
2022-10-21T03:27:24.785Z,10.75
2022-10-21T03:28:05.048Z,10.13
2022-10-21T03:28:39.539Z,10.19
2022-10-21T03:29:13.801Z,10.46
2022-10-21T03:29:54.072Z,10.50
2022-10-21T03:30:28.183Z,10.35
2022-10-21T03:31:01.803Z,10.43
2022-10-21T03:31:42.046Z,10.55
2022-10-21T03:32:16.217Z,10.13
2022-10-21T03:32:49.782Z,10.40
2022-10-21T03:33:31.088Z,10.06
2022-10-21T03:34:05.130Z,10.15
2022-10-21T03:34:38.761Z,10.06
2022-10-21T03:35:19.102Z,10.30
2022-10-21T03:35:53.158Z,10.63
2022-10-21T03:36:26.912Z,10.29
2022-10-21T03:37:07.072Z,10.13
2022-10-21T03:37:41.130Z,10.45
2022-10-21T03:38:15.789Z,10.52
2022-10-21T03:38:56.063Z,10.25
2022-10-21T03:39:30.099Z,10.54
2022-10-21T03:40:08.568Z,10.56
2022-10-21T03:40:51.090Z,10.99
2022-10-21T03:41:25.130Z,11.06
2022-10-21T03:41:58.778Z,10.95
2022-10-21T03:42:40.458Z,11.20
2022-10-21T03:43:15.237Z,10.80
2022-10-21T03:43:48.869Z,10.66
2022-10-21T03:44:29.060Z,10.44
2022-10-21T03:45:03.107Z,10.77
2022-10-21T03:45:36.831Z,11.01
2022-10-21T03:46:17.073Z,11.16
2022-10-21T03:46:51.113Z,11.04
2022-10-21T03:47:24.819Z,10.98
2022-10-21T03:48:06.063Z,10.96
2022-10-21T03:48:40.119Z,11.13
2022-10-21T03:49:20.127Z,10.76
2022-10-21T03:50:01.088Z,10.85
2022-10-21T03:50:35.101Z,10.60
2022-10-21T03:51:08.792Z,10.63
2022-10-21T03:51:49.066Z,11.06
2022-10-21T03:52:23.096Z,10.98
2022-10-21T03:52:56.699Z,10.66
2022-10-21T03:53:44.266Z,10.94
2022-10-21T03:54:18.083Z,11.00
2022-10-21T03:54:51.722Z,10.38
2022-10-21T03:55:33.010Z,10.24
2022-10-21T03:56:07.101Z,10.45
2022-10-21T03:56:40.741Z,10.30
2022-10-21T03:57:21.053Z,10.16
2022-10-21T03:57:55.121Z,10.01
2022-10-21T03:58:28.809Z,9.81
2022-10-21T03:59:09.036Z,9.98
2022-10-21T03:59:43.081Z,10.21
2022-10-21T04:00:17.085Z,9.98
2022-10-21T04:01:01.351Z,9.77
2022-10-21T04:01:35.190Z,10.09
2022-10-21T04:02:08.771Z,10.18
2022-10-21T04:02:50.048Z,10.23
2022-10-21T04:03:24.279Z,10.06
2022-10-21T04:03:57.725Z,9.74
2022-10-21T04:04:38.037Z,10.02
2022-10-21T04:05:13.120Z,9.79
2022-10-21T04:05:53.248Z,9.91
2022-10-21T04:06:33.016Z,10.21
2022-10-21T04:07:13.065Z,10.29
2022-10-21T04:07:54.033Z,10.55
2022-10-21T04:08:34.081Z,10.59
2022-10-21T04:09:14.091Z,11.01
2022-10-21T04:09:54.070Z,11.84
2022-10-21T04:10:34.040Z,12.06
2022-10-21T04:11:14.073Z,11.81
2022-10-21T04:11:54.013Z,11.39
2022-10-21T04:12:34.092Z,11.36
2022-10-21T04:13:15.071Z,11.43
2022-10-21T04:13:56.083Z,11.80
2022-10-21T04:14:36.006Z,12.11
2022-10-21T04:15:18.105Z,12.19
2022-10-21T04:16:03.059Z,12.18
2022-10-21T04:16:43.113Z,11.93
2022-10-21T04:17:23.014Z,11.77
2022-10-21T04:18:03.102Z,12.25
2022-10-21T04:18:43.073Z,12.51
2022-10-21T04:19:37.017Z,12.74
2022-10-21T04:20:31.009Z,12.07
2022-10-21T04:21:25.005Z,11.60
2022-10-21T04:22:20.025Z,11.51
2022-10-21T04:23:14.016Z,11.74
2022-10-21T04:24:01.047Z,11.52
2022-10-21T04:24:35.060Z,10.76
2022-10-21T04:25:22.004Z,10.57
2022-10-21T04:25:56.070Z,10.35
2022-10-21T04:26:42.986Z,10.42
2022-10-21T04:27:17.063Z,10.19
2022-10-21T04:28:04.005Z,10.40
2022-10-21T04:28:38.050Z,10.13
2022-10-21T04:29:25.115Z,10.21
2022-10-21T04:29:59.166Z,10.34
2022-10-21T04:30:46.003Z,10.48
2022-10-21T04:31:20.088Z,10.24
2022-10-21T04:32:07.030Z,10.40
2022-10-21T04:32:42.860Z,10.36
2022-10-21T04:33:30.004Z,9.96
2022-10-21T04:34:04.112Z,10.01
2022-10-21T04:34:52.021Z,10.16
2022-10-21T04:35:26.096Z,10.07
2022-10-21T04:36:13.995Z,10.41
2022-10-21T04:36:48.069Z,10.31
2022-10-21T04:37:34.997Z,10.34
2022-10-21T04:38:15.068Z,10.35
2022-10-21T04:39:02.024Z,10.76
2022-10-21T04:39:36.061Z,10.91
2022-10-21T04:40:17.010Z,10.63
2022-10-21T04:41:04.205Z,10.50
2022-10-21T04:41:44.017Z,10.88
2022-10-21T04:42:24.103Z,11.18
2022-10-21T04:43:03.998Z,11.05
2022-10-21T04:43:57.999Z,11.56
2022-10-21T04:44:53.021Z,11.90
2022-10-21T04:45:45.014Z,11.74
2022-10-21T04:46:20.894Z,11.16
2022-10-21T04:47:07.985Z,11.36
2022-10-21T04:47:42.103Z,11.51
2022-10-21T04:48:28.997Z,11.85
2022-10-21T04:49:03.080Z,12.49
2022-10-21T04:49:49.988Z,12.79
2022-10-21T04:50:24.049Z,12.04
2022-10-21T04:51:04.006Z,12.48
2022-10-21T04:51:44.042Z,12.80
2022-10-21T04:52:24.018Z,13.91
2022-10-21T04:53:04.040Z,14.36
2022-10-21T04:53:43.994Z,13.73
2022-10-21T04:54:24.033Z,12.99
2022-10-21T04:55:04.975Z,11.52
2022-10-21T04:55:48.089Z,10.76
2022-10-21T04:56:28.997Z,11.32
2022-10-21T04:57:09.144Z,11.32
2022-10-21T04:57:49.003Z,11.39
2022-10-21T04:58:29.045Z,11.30
2022-10-21T04:59:08.970Z,10.44
2022-10-21T04:59:49.085Z,10.52
2022-10-21T05:00:28.972Z,10.26
2022-10-21T05:01:09.092Z,10.23
2022-10-21T05:01:50.042Z,9.80
2022-10-21T05:02:30.037Z,9.94
2022-10-21T05:03:09.998Z,9.66
2022-10-21T05:03:50.032Z,9.20
2022-10-21T05:04:29.950Z,9.13
2022-10-21T05:05:10.082Z,9.25
2022-10-21T05:05:49.992Z,9.45
2022-10-21T05:06:30.020Z,9.57
2022-10-21T05:07:10.006Z,9.44
2022-10-21T05:07:50.029Z,8.95
2022-10-21T05:08:30.045Z,9.10
2022-10-21T05:09:10.286Z,9.40
2022-10-21T05:09:49.954Z,9.48
2022-10-21T05:10:32.951Z,9.74
2022-10-21T05:11:13.964Z,9.61
2022-10-21T05:11:54.060Z,9.25
2022-10-21T05:13:19.029Z,9.48
2022-10-21T05:13:59.937Z,9.04
2022-10-21T05:14:40.025Z,9.00
2022-10-21T05:15:20.965Z,9.06
2022-10-21T05:16:06.079Z,8.98
2022-10-21T05:16:45.970Z,8.90
2022-10-21T05:17:26.006Z,8.98
2022-10-21T05:18:06.013Z,9.19
2022-10-21T05:18:46.073Z,8.77
2022-10-21T05:19:30.362Z,8.74
2022-10-21T05:20:12.029Z,9.04
2022-10-21T05:20:57.967Z,9.16
2022-10-21T05:21:38.040Z,8.80
2022-10-21T05:22:18.963Z,9.06
2022-10-21T05:22:59.102Z,9.13
2022-10-21T05:23:39.965Z,9.05
2022-10-21T05:24:22.154Z,8.91
2022-10-21T05:25:01.973Z,8.75
2022-10-21T05:25:41.985Z,9.07
2022-10-21T05:26:21.971Z,9.06
2022-10-21T05:27:02.007Z,8.89
2022-10-21T05:27:41.964Z,9.05
2022-10-21T05:28:21.993Z,8.95
2022-10-21T05:29:01.997Z,8.93
2022-10-21T05:29:42.057Z,9.20
2022-10-21T05:30:22.942Z,9.43
2022-10-21T05:31:03.062Z,8.94
2022-10-21T05:31:43.932Z,9.15
2022-10-21T05:32:24.192Z,9.42
2022-10-21T05:33:03.938Z,9.96
2022-10-21T05:33:43.978Z,10.30
2022-10-21T05:34:24.026Z,11.25
2022-10-21T05:35:04.024Z,12.27
2022-10-21T05:35:44.978Z,13.21
2022-10-21T05:36:25.025Z,15.48
2022-10-21T05:37:05.998Z,17.76
2022-10-21T05:37:59.952Z,18.61
2022-10-21T05:38:53.911Z,20.88
2022-10-21T05:40:20.050Z,24.40
2022-10-21T05:41:07.969Z,23.73
2022-10-21T05:41:44.203Z,23.89
2022-10-21T05:42:35.084Z,23.99
2022-10-21T05:43:09.033Z,22.52
2022-10-21T05:43:55.937Z,20.84
2022-10-21T05:44:30.108Z,19.31
2022-10-21T05:45:10.972Z,18.25
2022-10-21T05:45:51.000Z,16.66
2022-10-21T05:46:30.908Z,14.98
2022-10-21T05:47:11.021Z,13.80
2022-10-21T05:47:51.002Z,13.59
2022-10-21T05:48:32.028Z,12.71
2022-10-21T05:49:12.925Z,11.46
2022-10-21T05:49:53.082Z,11.63
2022-10-21T05:50:33.958Z,10.90
2022-10-21T05:51:13.967Z,10.32
2022-10-21T05:51:54.890Z,10.25
2022-10-21T05:52:35.052Z,9.71
2022-10-21T05:53:15.947Z,9.26
2022-10-21T05:53:56.074Z,9.25
2022-10-21T05:54:35.939Z,9.30
2022-10-21T05:55:17.053Z,9.06
2022-10-21T05:56:12.980Z,8.81
2022-10-21T05:56:52.989Z,9.02
2022-10-21T05:57:32.944Z,9.00
2022-10-21T05:58:14.018Z,9.00
2022-10-21T05:58:54.956Z,9.27
2022-10-21T05:59:35.016Z,9.76
2022-10-21T06:00:16.899Z,9.98
2022-10-21T06:00:59.138Z,10.01
2022-10-21T06:01:38.942Z,10.55
2022-10-21T06:02:52.028Z,11.13
2022-10-21T06:03:37.928Z,11.91
2022-10-21T06:04:17.977Z,12.68
2022-10-21T06:04:57.898Z,13.06
2022-10-21T06:05:38.186Z,13.36
2022-10-21T06:06:18.933Z,13.57
2022-10-21T06:06:58.962Z,14.13
2022-10-21T06:07:32.981Z,14.41
2022-10-21T06:08:19.898Z,14.39
2022-10-21T06:08:54.019Z,14.61
2022-10-21T06:09:41.902Z,15.23
2022-10-21T06:10:16.672Z,15.81
2022-10-21T06:11:15.934Z,15.73
2022-10-21T06:11:49.971Z,14.71
2022-10-21T06:12:30.111Z,13.29
2022-10-21T06:13:10.046Z,13.02
2022-10-21T06:13:50.899Z,12.50
2022-10-21T06:14:33.001Z,11.98
2022-10-21T06:15:13.896Z,11.57
2022-10-21T06:15:53.995Z,10.81
2022-10-21T06:16:34.882Z,11.07
2022-10-21T06:17:14.995Z,10.86
2022-10-21T06:17:54.930Z,10.80
2022-10-21T06:18:35.009Z,11.07
2022-10-21T06:19:15.878Z,10.43
2022-10-21T06:19:55.986Z,10.13
2022-10-21T06:20:35.961Z,9.96
2022-10-21T06:21:17.008Z,9.80
2022-10-21T06:21:56.897Z,9.44
2022-10-21T06:22:36.988Z,9.52
2022-10-21T06:23:18.895Z,9.34
2022-10-21T06:24:01.965Z,9.51
2022-10-21T06:24:41.882Z,9.50
2022-10-21T06:25:22.113Z,9.66
2022-10-21T06:26:22.912Z,9.56
2022-10-21T06:27:03.065Z,9.26
2022-10-21T06:27:42.957Z,9.43
2022-10-21T06:28:29.912Z,9.70
2022-10-21T06:29:23.981Z,9.71
2022-10-21T06:30:18.900Z,9.34
2022-10-21T06:31:12.898Z,9.52
2022-10-21T06:32:06.853Z,9.98
2022-10-21T06:33:00.941Z,9.74
2022-10-21T06:33:47.921Z,9.30
2022-10-21T06:34:22.398Z,9.51
2022-10-21T06:35:10.866Z,9.57
2022-10-21T06:35:45.028Z,9.80
2022-10-21T06:36:31.994Z,9.94
2022-10-21T06:37:05.937Z,9.82
2022-10-21T06:37:52.915Z,9.74
2022-10-21T06:38:27.017Z,9.91
2022-10-21T06:39:08.001Z,9.85
2022-10-21T06:39:47.979Z,9.90
2022-10-21T06:40:27.932Z,10.39
2022-10-21T06:41:16.033Z,10.68
2022-10-21T06:41:55.923Z,10.54
2022-10-21T06:42:35.937Z,10.46
2022-10-21T06:43:15.912Z,10.39
2022-10-21T06:43:56.944Z,10.60
2022-10-21T06:44:36.907Z,10.10
2022-10-21T06:45:17.931Z,10.32
2022-10-21T06:45:57.877Z,10.54
2022-10-21T06:46:37.993Z,10.40
2022-10-21T06:47:17.865Z,10.26
2022-10-21T06:48:40.366Z,10.41
2022-10-21T06:49:20.850Z,10.35
2022-10-21T06:50:00.896Z,10.82
2022-10-21T06:50:34.908Z,10.51
2022-10-21T06:51:28.848Z,10.43
2022-10-21T06:52:02.943Z,10.54
2022-10-21T06:52:50.904Z,10.14
2022-10-21T06:53:24.954Z,10.14
2022-10-21T06:54:11.879Z,10.57
2022-10-21T06:54:45.948Z,10.29
2022-10-21T06:55:25.958Z,9.98
2022-10-21T06:56:16.641Z,10.18
2022-10-21T06:56:56.865Z,10.23
2022-10-21T06:57:37.382Z,10.49
2022-10-21T06:58:17.847Z,10.44
2022-10-21T06:58:58.048Z,10.02
2022-10-21T06:59:37.859Z,9.77
2022-10-21T07:00:19.998Z,9.82
2022-10-21T07:00:59.889Z,9.69
2022-10-21T07:01:59.061Z,9.90
2022-10-21T07:02:40.184Z,10.51
2022-10-21T07:03:20.945Z,10.35
2022-10-21T07:04:01.845Z,10.13
2022-10-21T07:04:45.028Z,9.95
2022-10-21T07:05:24.866Z,9.76
2022-10-21T07:06:12.924Z,9.60
2022-10-21T07:07:06.853Z,9.68
2022-10-21T07:08:00.868Z,9.61
2022-10-21T07:08:59.323Z,9.59
2022-10-21T07:09:53.845Z,9.50
2022-10-21T07:10:51.887Z,9.46
2022-10-21T07:11:33.913Z,8.94
2022-10-21T07:12:14.091Z,9.34
2022-10-21T07:12:53.848Z,9.30
2022-10-21T07:13:33.915Z,9.38
2022-10-21T07:14:13.856Z,9.20
2022-10-21T07:14:54.398Z,9.00
2022-10-21T07:15:34.893Z,9.40
2022-10-21T07:16:25.956Z,9.26
2022-10-21T07:17:06.867Z,9.05
2022-10-21T07:17:46.915Z,8.69
2022-10-21T07:18:26.855Z,8.36
2022-10-21T07:19:06.957Z,7.97
2022-10-21T07:19:47.833Z,8.04
2022-10-21T07:20:27.932Z,8.26
2022-10-21T07:21:13.846Z,8.24
2022-10-21T07:21:54.044Z,8.11
2022-10-21T07:22:33.881Z,8.24
2022-10-21T07:23:13.936Z,8.66
2022-10-21T07:23:59.352Z,8.32
2022-10-21T07:24:39.946Z,7.88
2022-10-21T07:25:20.148Z,7.79
2022-10-21T07:26:00.949Z,7.79
2022-10-21T07:26:41.946Z,7.75
2022-10-21T07:27:21.987Z,7.34
2022-10-21T07:28:02.879Z,7.29
2022-10-21T07:28:46.999Z,7.51
2022-10-21T07:29:27.888Z,7.47
2022-10-21T07:30:07.918Z,7.00
2022-10-21T07:30:52.137Z,7.13
2022-10-21T07:31:32.904Z,7.99
2022-10-21T07:32:12.895Z,7.51
2022-10-21T07:32:52.881Z,7.39
2022-10-21T07:33:33.884Z,7.34
2022-10-21T07:34:16.155Z,7.35
2022-10-21T07:34:56.845Z,7.19
2022-10-21T07:35:36.934Z,7.10
2022-10-21T07:36:30.856Z,7.09
2022-10-21T07:37:10.926Z,7.21
2022-10-21T07:37:50.870Z,7.09
2022-10-21T07:38:30.919Z,6.84
2022-10-21T07:39:16.955Z,7.03
2022-10-21T07:39:57.962Z,7.18
2022-10-21T07:40:38.850Z,7.25
2022-10-21T07:41:31.903Z,7.19
2022-10-21T07:42:11.808Z,7.57
2022-10-21T07:42:51.907Z,8.27
2022-10-21T07:43:32.809Z,8.10
2022-10-21T07:44:13.954Z,8.21
2022-10-21T07:44:56.918Z,8.21
2022-10-21T07:45:36.949Z,7.84
2022-10-21T07:46:17.832Z,7.47
2022-10-21T07:46:58.914Z,7.31
2022-10-21T07:47:39.049Z,6.75
2022-10-21T07:48:20.077Z,6.75
2022-10-21T07:49:00.791Z,6.86
2022-10-21T07:49:40.889Z,6.93
2022-10-21T07:50:21.878Z,6.82
2022-10-21T07:51:01.935Z,6.68
2022-10-21T07:51:42.849Z,6.82
2022-10-21T07:52:22.934Z,7.16
2022-10-21T07:53:12.003Z,7.20
2022-10-21T07:53:55.954Z,7.18
2022-10-21T07:54:36.797Z,7.25
2022-10-21T07:55:18.990Z,6.82
2022-10-21T07:56:29.977Z,7.16
2022-10-21T07:57:09.909Z,7.06
2022-10-21T07:57:50.870Z,6.89
2022-10-21T07:58:30.958Z,6.69
2022-10-21T07:59:13.227Z,6.93
2022-10-21T07:59:54.964Z,6.99
2022-10-21T08:00:34.918Z,6.94
2022-10-21T08:01:55.859Z,7.15
2022-10-21T08:02:50.857Z,7.00
2022-10-21T08:03:46.994Z,7.30
2022-10-21T08:04:40.926Z,6.91
2022-10-21T08:05:35.888Z,6.93
2022-10-21T08:06:30.816Z,6.93
2022-10-21T08:07:17.898Z,6.75
2022-10-21T08:07:51.889Z,7.00
2022-10-21T08:08:40.866Z,6.75
2022-10-21T08:09:17.306Z,7.06
2022-10-21T08:10:05.860Z,6.84
2022-10-21T08:10:40.596Z,6.70
2022-10-21T08:11:36.896Z,6.63
2022-10-21T08:12:14.392Z,6.61
2022-10-21T08:12:56.838Z,6.79
2022-10-21T08:13:36.880Z,6.70
2022-10-21T08:14:17.917Z,6.84
2022-10-21T08:14:59.023Z,6.70
2022-10-21T08:15:38.936Z,6.28
2022-10-21T08:16:18.947Z,6.34
2022-10-21T08:17:00.865Z,6.41
2022-10-21T08:17:41.042Z,6.46
2022-10-21T08:18:21.892Z,6.35
2022-10-21T08:19:02.908Z,6.47
2022-10-21T08:19:43.879Z,6.85
2022-10-21T08:20:23.855Z,6.97
2022-10-21T08:21:03.791Z,7.16
2022-10-21T08:21:45.852Z,7.28
2022-10-21T08:22:25.777Z,7.00
2022-10-21T08:23:05.915Z,7.38
2022-10-21T08:23:46.864Z,7.22
2022-10-21T08:24:27.079Z,6.89
2022-10-21T08:25:07.844Z,7.16
2022-10-21T08:26:01.371Z,7.46
2022-10-21T08:26:42.808Z,7.06
2022-10-21T08:27:23.905Z,6.84
2022-10-21T08:28:03.806Z,6.91
2022-10-21T08:28:43.882Z,6.90
2022-10-21T08:29:24.921Z,6.86
2022-10-21T08:30:05.880Z,6.86
2022-10-21T08:30:46.874Z,6.65
2022-10-21T08:31:28.955Z,6.84
2022-10-21T08:32:08.974Z,6.90
2022-10-21T08:32:49.006Z,7.29
2022-10-21T08:33:28.760Z,7.39
2022-10-21T08:34:16.995Z,7.24
2022-10-21T08:34:57.808Z,6.99
2022-10-21T08:35:37.875Z,6.86
2022-10-21T08:36:31.835Z,6.85
2022-10-21T08:37:11.953Z,6.94
2022-10-21T08:37:55.792Z,7.05
2022-10-21T08:38:35.932Z,7.21
2022-10-21T08:39:16.861Z,7.29
2022-10-21T08:40:04.960Z,7.20
2022-10-21T08:41:00.768Z,6.89
2022-10-21T08:42:11.786Z,6.50
2022-10-21T08:43:06.810Z,6.74
2022-10-21T08:44:00.936Z,6.66
2022-10-21T08:45:14.807Z,6.53
2022-10-21T08:46:14.892Z,6.51
2022-10-21T08:47:23.751Z,6.61
2022-10-21T08:48:19.857Z,7.18
2022-10-21T08:49:29.879Z,7.29
2022-10-21T08:50:36.806Z,6.82
2022-10-21T08:52:02.808Z,6.81
2022-10-21T08:53:10.748Z,6.89
2022-10-21T08:54:07.862Z,7.00
2022-10-21T08:55:08.859Z,6.84
2022-10-21T08:56:02.802Z,6.43
2022-10-21T08:56:37.961Z,6.60
2022-10-21T08:57:26.793Z,6.20
2022-10-21T08:58:00.903Z,6.64
2022-10-21T08:58:47.763Z,7.03
2022-10-21T08:59:30.835Z,6.93
2022-10-21T09:00:25.769Z,7.14
2022-10-21T09:01:19.826Z,7.25
2022-10-21T09:02:13.605Z,6.97
2022-10-21T09:03:37.803Z,6.88
2022-10-21T09:04:28.267Z,6.94
2022-10-21T09:05:42.892Z,6.65
2022-10-21T09:07:03.769Z,6.35
2022-10-21T09:08:26.863Z,6.53
2022-10-21T09:09:37.786Z,6.45
2022-10-21T09:10:52.837Z,6.19
2022-10-21T09:11:48.770Z,6.04
2022-10-21T09:12:44.850Z,6.16
2022-10-21T09:13:54.890Z,5.95
2022-10-21T09:14:40.436Z,5.46
2022-10-21T09:15:39.822Z,5.13
2022-10-21T09:17:02.839Z,5.24
2022-10-21T09:18:12.783Z,5.24
2022-10-21T09:19:12.818Z,5.40
2022-10-21T09:20:45.795Z,5.36
2022-10-21T09:22:10.834Z,5.19
2022-10-21T09:24:28.907Z,5.10
2022-10-21T09:25:27.795Z,5.71
2022-10-21T09:26:30.209Z,6.86
2022-10-21T09:27:11.729Z,6.56
2022-10-21T09:27:57.153Z,6.60
2022-10-21T09:28:37.756Z,6.45
2022-10-21T09:29:51.794Z,6.05
2022-10-21T09:30:32.845Z,5.65
2022-10-21T09:31:22.960Z,5.76
2022-10-21T09:32:18.792Z,5.40
2022-10-21T09:33:05.807Z,5.51
2022-10-21T09:33:45.830Z,6.04
2022-10-21T09:34:48.029Z,6.16
2022-10-21T09:35:52.751Z,5.31
2022-10-21T09:36:48.139Z,5.15
2022-10-21T09:37:55.760Z,5.61
2022-10-21T09:39:03.834Z,6.64
2022-10-21T09:39:43.031Z,7.10
2022-10-21T09:40:42.664Z,6.70
2022-10-21T09:42:29.189Z,6.14
2022-10-21T09:43:06.487Z,5.53
2022-10-21T09:43:54.748Z,5.51
2022-10-21T09:44:35.889Z,5.54
2022-10-21T09:45:44.997Z,5.66
2022-10-21T09:46:25.840Z,5.47
2022-10-21T09:47:05.866Z,5.19
2022-10-21T09:47:45.821Z,5.26